createdAt,value
2018-11-28T00:00:54.527Z,9.80
2018-11-28T00:01:54.577Z,8.40
2018-11-28T00:02:54.632Z,9.90
2018-11-28T00:03:54.684Z,9.90
2018-11-28T00:04:54.740Z,12.00
2018-11-28T00:05:54.793Z,9.90
2018-11-28T00:06:54.849Z,12.00
2018-11-28T00:07:55.151Z,8.70
2018-11-28T00:08:54.954Z,10.00
2018-11-28T00:09:55.010Z,9.90
2018-11-28T00:10:55.063Z,7.40
2018-11-28T00:11:55.117Z,7.70
2018-11-28T00:12:55.321Z,8.00
2018-11-28T00:13:55.223Z,11.70
2018-11-28T00:14:55.279Z,9.70
2018-11-28T00:15:55.332Z,12.00
2018-11-28T00:16:55.385Z,10.10
2018-11-28T00:17:55.439Z,9.80
2018-11-28T00:18:55.494Z,8.30
2018-11-28T00:19:55.547Z,10.10
2018-11-28T00:20:55.600Z,8.70
2018-11-28T00:21:55.655Z,9.20
2018-11-28T00:22:55.718Z,8.50
2018-11-28T00:23:55.763Z,9.70
2018-11-28T00:24:55.815Z,8.10
2018-11-28T00:25:58.810Z,11.90
2018-11-28T00:26:55.922Z,8.70
2018-11-28T00:27:55.977Z,12.10
2018-11-28T00:28:56.036Z,8.10
2018-11-28T00:29:56.084Z,11.00
2018-11-28T00:30:56.137Z,11.00
2018-11-28T00:31:56.190Z,8.40
2018-11-28T00:32:56.245Z,9.90
2018-11-28T00:33:56.298Z,9.70
2018-11-28T00:34:56.351Z,11.30
2018-11-28T00:35:56.405Z,9.50
2018-11-28T00:36:56.460Z,9.60
2018-11-28T00:37:56.512Z,9.10
2018-11-28T00:38:56.566Z,11.20
2018-11-28T00:39:56.620Z,8.80
2018-11-28T00:40:56.673Z,8.30
2018-11-28T00:41:56.726Z,9.20
2018-11-28T00:42:56.779Z,9.30
2018-11-28T00:43:56.832Z,17.80
2018-11-28T00:44:56.885Z,9.00
2018-11-28T00:45:56.939Z,11.50
2018-11-28T00:46:56.992Z,12.10
2018-11-28T00:47:57.048Z,10.20
2018-11-28T00:48:57.100Z,11.10
2018-11-28T00:49:57.152Z,12.00
2018-11-28T00:50:57.206Z,10.70
2018-11-28T00:51:57.262Z,11.60
2018-11-28T00:52:57.312Z,10.20
2018-11-28T00:53:57.366Z,10.60
2018-11-28T00:54:57.419Z,11.60
2018-11-28T00:55:57.470Z,11.20
2018-11-28T00:56:57.525Z,11.50
2018-11-28T00:57:57.577Z,9.70
2018-11-28T00:58:57.630Z,11.40
2018-11-28T00:59:57.683Z,9.70
2018-11-28T01:00:57.740Z,11.80
2018-11-28T01:01:57.791Z,13.30
2018-11-28T01:02:57.843Z,13.10
2018-11-28T01:03:57.896Z,11.30
2018-11-28T01:04:57.950Z,11.60
2018-11-28T01:05:58.005Z,10.40
2018-11-28T01:06:58.055Z,14.50
2018-11-28T01:07:58.108Z,8.90
2018-11-28T01:08:58.162Z,10.40
2018-11-28T01:09:58.214Z,12.00
2018-11-28T01:10:58.269Z,11.10
2018-11-28T01:11:58.320Z,11.10
2018-11-28T01:12:58.374Z,15.00
2018-11-28T01:13:58.427Z,10.60
2018-11-28T01:14:58.481Z,9.80
2018-11-28T01:15:58.532Z,11.90
2018-11-28T01:16:58.587Z,13.50
2018-11-28T01:17:58.640Z,10.60
2018-11-28T01:18:58.693Z,12.60
2018-11-28T01:19:58.744Z,12.40
2018-11-28T01:20:58.799Z,10.60
2018-11-28T01:21:58.853Z,11.50
2018-11-28T01:22:58.905Z,14.50
2018-11-28T01:23:58.958Z,11.60
2018-11-28T01:24:59.011Z,13.30
2018-11-28T01:25:59.064Z,10.70
2018-11-28T01:26:59.116Z,10.70
2018-11-28T01:27:59.170Z,12.90
2018-11-28T01:28:59.226Z,11.80
2018-11-28T01:29:59.276Z,12.80
2018-11-28T01:30:59.330Z,11.30
2018-11-28T01:31:59.381Z,10.30
2018-11-28T01:32:59.437Z,12.20
2018-11-28T01:33:59.491Z,12.30
2018-11-28T01:34:59.540Z,11.80
2018-11-28T01:35:59.843Z,11.70
2018-11-28T01:36:59.646Z,12.90
2018-11-28T01:37:59.699Z,14.60
2018-11-28T01:38:59.756Z,15.00
2018-11-28T01:39:59.805Z,13.20
2018-11-28T01:40:59.858Z,12.80
2018-11-28T01:41:59.910Z,13.10
2018-11-28T01:42:59.965Z,13.50
2018-11-28T01:44:00.017Z,12.50
2018-11-28T01:45:00.071Z,13.80
2018-11-28T01:46:00.122Z,11.00
2018-11-28T01:47:00.175Z,13.00
2018-11-28T01:48:00.229Z,14.70
2018-11-28T01:49:00.283Z,14.10
2018-11-28T01:50:01.562Z,10.60
2018-11-28T01:51:00.389Z,11.70
2018-11-28T01:52:00.441Z,14.60
2018-11-28T01:53:00.493Z,14.30
2018-11-28T01:54:00.546Z,14.40
2018-11-28T01:55:00.598Z,10.10
2018-11-28T01:56:00.652Z,10.70
2018-11-28T01:57:00.705Z,10.90
2018-11-28T01:58:00.759Z,13.60
2018-11-28T01:59:00.810Z,13.70
2018-11-28T02:00:00.863Z,12.50
2018-11-28T02:01:00.915Z,13.50
2018-11-28T02:02:00.968Z,15.80
2018-11-28T02:03:01.024Z,12.00
2018-11-28T02:04:01.074Z,15.20
2018-11-28T02:05:01.127Z,12.40
2018-11-28T02:06:01.179Z,13.40
2018-11-28T02:07:01.233Z,11.80
2018-11-28T02:08:01.284Z,11.80
2018-11-28T02:09:01.338Z,13.20
2018-11-28T02:10:01.393Z,12.60
2018-11-28T02:11:01.445Z,13.50
2018-11-28T02:12:01.496Z,12.60
2018-11-28T02:13:01.549Z,10.80
2018-11-28T02:14:01.602Z,14.40
2018-11-28T02:15:01.668Z,12.50
2018-11-28T02:16:01.708Z,11.90
2018-11-28T02:17:01.759Z,13.30
2018-11-28T02:18:01.815Z,14.90
2018-11-28T02:19:01.869Z,14.80
2018-11-28T02:20:01.920Z,14.30
2018-11-28T02:21:01.996Z,16.00
2018-11-28T02:22:02.023Z,13.80
2018-11-28T02:23:02.077Z,15.00
2018-11-28T02:24:02.129Z,12.70
2018-11-28T02:25:02.181Z,15.10
2018-11-28T02:26:02.236Z,14.10
2018-11-28T02:27:02.288Z,13.80
2018-11-28T02:28:02.340Z,15.80
2018-11-28T02:29:02.397Z,15.70
2018-11-28T02:30:02.446Z,15.40
2018-11-28T02:31:02.498Z,19.50
2018-11-28T02:32:02.562Z,16.90
2018-11-28T02:33:02.607Z,13.10
2018-11-28T02:34:02.658Z,14.70
2018-11-28T02:35:02.710Z,13.00
2018-11-28T02:36:02.762Z,16.20
2018-11-28T02:37:02.815Z,14.30
2018-11-28T02:38:02.869Z,15.00
2018-11-28T02:39:02.922Z,13.90
2018-11-28T02:40:02.972Z,14.60
2018-11-28T02:41:03.024Z,15.10
2018-11-28T02:42:03.078Z,14.30
2018-11-28T02:43:03.131Z,13.80
2018-11-28T02:44:03.182Z,15.70
2018-11-28T02:45:03.236Z,14.90
2018-11-28T02:46:03.290Z,13.90
2018-11-28T02:47:03.342Z,15.40
2018-11-28T02:48:03.395Z,13.50
2018-11-28T02:49:03.449Z,14.60
2018-11-28T02:50:03.500Z,13.00
2018-11-28T02:51:03.665Z,13.60
2018-11-28T02:52:03.604Z,15.50
2018-11-28T02:53:03.656Z,12.50
2018-11-28T02:54:03.709Z,13.40
2018-11-28T02:55:03.764Z,13.00
2018-11-28T02:56:03.823Z,14.70
2018-11-28T02:57:03.868Z,13.20
2018-11-28T02:58:03.920Z,15.20
2018-11-28T02:59:03.988Z,13.30
2018-11-28T03:00:04.027Z,13.30
2018-11-28T03:01:04.077Z,16.30
2018-11-28T03:02:04.130Z,16.80
2018-11-28T03:03:04.185Z,15.40
2018-11-28T03:04:04.236Z,16.70
2018-11-28T03:05:04.289Z,13.90
2018-11-28T03:06:04.341Z,16.60
2018-11-28T03:07:04.393Z,18.40
2018-11-28T03:08:04.448Z,14.30
2018-11-28T03:09:04.499Z,18.40
2018-11-28T03:10:04.555Z,14.20
2018-11-28T03:11:04.604Z,15.90
2018-11-28T03:12:04.655Z,15.00
2018-11-28T03:13:04.709Z,14.00
2018-11-28T03:14:04.765Z,14.40
2018-11-28T03:15:04.816Z,14.70
2018-11-28T03:16:04.870Z,13.60
2018-11-28T03:17:04.919Z,16.00
2018-11-28T03:18:04.977Z,13.10
2018-11-28T03:19:05.025Z,12.00
2018-11-28T03:20:05.076Z,16.10
2018-11-28T03:21:05.131Z,11.90
2018-11-28T03:22:05.182Z,13.10
2018-11-28T03:23:05.234Z,12.20
2018-11-28T03:24:05.286Z,15.40
2018-11-28T03:25:05.339Z,12.90
2018-11-28T03:26:05.391Z,13.40
2018-11-28T03:27:05.445Z,15.10
2018-11-28T03:28:05.499Z,13.30
2018-11-28T03:29:05.551Z,12.00
2018-11-28T03:30:05.603Z,15.30
2018-11-28T03:31:05.657Z,16.50
2018-11-28T03:32:05.709Z,13.40
2018-11-28T03:33:05.763Z,16.60
2018-11-28T03:34:05.814Z,17.80
2018-11-28T03:35:05.867Z,16.50
2018-11-28T03:36:05.921Z,15.00
2018-11-28T03:37:05.977Z,15.00
2018-11-28T03:38:06.277Z,15.80
2018-11-28T03:39:06.078Z,13.80
2018-11-28T03:40:06.203Z,16.10
2018-11-28T03:41:06.182Z,14.70
2018-11-28T03:42:06.236Z,14.10
2018-11-28T03:43:06.292Z,17.40
2018-11-28T03:44:06.341Z,18.60
2018-11-28T03:45:06.393Z,13.30
2018-11-28T03:46:06.446Z,18.50
2018-11-28T03:47:06.500Z,15.40
2018-11-28T03:48:06.553Z,17.10
2018-11-28T03:49:06.606Z,19.20
2018-11-28T03:50:06.659Z,17.30
2018-11-28T03:51:06.713Z,13.10
2018-11-28T03:52:06.768Z,19.40
2018-11-28T03:53:06.816Z,14.80
2018-11-28T03:54:06.869Z,14.00
2018-11-28T03:55:06.924Z,13.70
2018-11-28T03:56:06.973Z,13.90
2018-11-28T03:57:07.031Z,18.00
2018-11-28T03:58:07.080Z,15.00
2018-11-28T03:59:07.146Z,15.30
2018-11-28T04:00:07.185Z,16.20
2018-11-28T04:01:07.239Z,12.40
2018-11-28T04:02:07.299Z,22.00
2018-11-28T04:03:07.346Z,16.30
2018-11-28T04:04:07.396Z,17.30
2018-11-28T04:05:07.449Z,17.50
2018-11-28T04:06:07.506Z,13.60
2018-11-28T04:07:07.556Z,14.70
2018-11-28T04:08:07.608Z,16.10
2018-11-28T04:09:07.661Z,13.30
2018-11-28T04:10:07.715Z,14.50
2018-11-28T04:11:07.770Z,16.70
2018-11-28T04:12:07.820Z,17.80
2018-11-28T04:13:07.874Z,12.90
2018-11-28T04:14:07.926Z,13.20
2018-11-28T04:15:07.982Z,16.90
2018-11-28T04:16:08.033Z,16.30
2018-11-28T04:17:08.086Z,15.10
2018-11-28T04:18:08.140Z,15.00
2018-11-28T04:19:08.196Z,18.40
2018-11-28T04:20:08.249Z,17.00
2018-11-28T04:21:08.300Z,15.90
2018-11-28T04:22:08.351Z,16.20
2018-11-28T04:23:08.405Z,11.80
2018-11-28T04:24:08.461Z,15.30
2018-11-28T04:25:08.513Z,17.30
2018-11-28T04:26:08.564Z,14.40
2018-11-28T04:27:08.620Z,16.80
2018-11-28T04:28:08.670Z,18.10
2018-11-28T04:29:08.724Z,14.60
2018-11-28T04:30:08.778Z,18.60
2018-11-28T04:31:08.832Z,14.20
2018-11-28T04:32:08.883Z,13.80
2018-11-28T04:33:08.935Z,17.70
2018-11-28T04:34:08.989Z,15.60
2018-11-28T04:35:09.043Z,14.60
2018-11-28T04:36:09.095Z,16.60
2018-11-28T04:37:09.148Z,15.40
2018-11-28T04:38:09.201Z,14.20
2018-11-28T04:39:09.257Z,16.30
2018-11-28T04:40:09.559Z,12.60
2018-11-28T04:41:09.360Z,13.80
2018-11-28T04:42:09.415Z,13.10
2018-11-28T04:43:09.470Z,15.40
2018-11-28T04:44:09.524Z,17.60
2018-11-28T04:45:09.574Z,17.90
2018-11-28T04:46:09.627Z,18.30
2018-11-28T04:47:09.680Z,13.00
2018-11-28T04:48:09.730Z,18.80
2018-11-28T04:49:10.307Z,20.90
2018-11-28T04:50:09.838Z,17.60
2018-11-28T04:51:09.892Z,14.50
2018-11-28T04:52:09.944Z,15.30
2018-11-28T04:53:10.004Z,18.70
2018-11-28T04:54:10.051Z,18.10
2018-11-28T04:55:10.103Z,17.80
2018-11-28T04:56:10.160Z,19.70
2018-11-28T04:57:10.208Z,14.90
2018-11-28T04:58:10.263Z,21.10
2018-11-28T04:59:10.315Z,18.60
2018-11-28T05:00:10.400Z,18.90
2018-11-28T05:01:10.456Z,15.00
2018-11-28T05:02:10.474Z,16.40
2018-11-28T05:03:10.525Z,17.00
2018-11-28T05:04:10.578Z,18.50
2018-11-28T05:05:10.631Z,16.70
2018-11-28T05:06:11.226Z,17.70
2018-11-28T05:07:10.774Z,16.40
2018-11-28T05:08:10.824Z,15.10
2018-11-28T05:09:10.843Z,16.10
2018-11-28T05:10:10.896Z,16.90
2018-11-28T05:11:10.950Z,16.90
2018-11-28T05:12:11.002Z,15.60
2018-11-28T05:13:11.057Z,17.70
2018-11-28T05:14:11.112Z,16.90
2018-11-28T05:15:11.163Z,20.50
2018-11-28T05:16:11.246Z,17.20
2018-11-28T05:17:11.303Z,18.50
2018-11-28T05:18:11.352Z,19.60
2018-11-28T05:19:11.374Z,17.10
2018-11-28T05:20:15.488Z,15.90
2018-11-28T05:21:11.890Z,16.40
2018-11-28T05:22:11.703Z,17.10
2018-11-28T05:23:11.616Z,18.20
2018-11-28T05:24:11.641Z,18.50
2018-11-28T05:25:11.689Z,17.10
2018-11-28T05:26:11.744Z,16.30
2018-11-28T05:27:11.797Z,21.90
2018-11-28T05:28:11.851Z,19.70
2018-11-28T05:29:11.903Z,17.50
2018-11-28T05:30:11.960Z,19.30
2018-11-28T05:31:12.009Z,13.60
2018-11-28T05:32:12.060Z,16.80
2018-11-28T05:33:12.113Z,17.70
2018-11-28T05:34:12.552Z,19.70
2018-11-28T05:35:12.538Z,19.00
2018-11-28T05:36:12.275Z,18.00
2018-11-28T05:37:12.328Z,20.20
2018-11-28T05:38:12.863Z,14.40
2018-11-28T05:39:12.430Z,14.50
2018-11-28T05:40:12.504Z,15.00
2018-11-28T05:41:12.541Z,18.80
2018-11-28T05:42:12.589Z,16.30
2018-11-28T05:43:12.643Z,18.70
2018-11-28T05:44:12.694Z,17.50
2018-11-28T05:45:12.750Z,15.90
2018-11-28T05:46:12.800Z,16.60
2018-11-28T05:47:12.852Z,16.80
2018-11-28T05:48:12.905Z,17.00
2018-11-28T05:49:15.191Z,16.00
2018-11-28T05:50:13.011Z,18.00
2018-11-28T05:51:13.064Z,15.40
2018-11-28T05:52:13.116Z,15.10
2018-11-28T05:53:13.169Z,18.80
2018-11-28T05:54:13.222Z,18.10
2018-11-28T05:55:13.274Z,18.20
2018-11-28T05:56:13.326Z,16.90
2018-11-28T05:57:13.380Z,18.20
2018-11-28T05:58:13.433Z,18.00
2018-11-28T05:59:13.486Z,16.50
2018-11-28T06:00:13.541Z,18.70
2018-11-28T06:01:13.592Z,18.20
2018-11-28T06:02:13.644Z,16.90
2018-11-28T06:03:13.699Z,18.30
2018-11-28T06:04:14.059Z,15.00
2018-11-28T06:05:13.801Z,14.90
2018-11-28T06:06:13.854Z,22.50
2018-11-28T06:07:13.908Z,16.30
2018-11-28T06:08:13.960Z,15.00
2018-11-28T06:09:14.013Z,14.90
2018-11-28T06:10:14.066Z,16.40
2018-11-28T06:11:14.119Z,17.40
2018-11-28T06:12:14.177Z,17.70
2018-11-28T06:13:14.224Z,17.70
2018-11-28T06:14:14.277Z,20.50
2018-11-28T06:15:14.332Z,17.90
2018-11-28T06:16:14.386Z,17.40
2018-11-28T06:17:14.435Z,16.10
2018-11-28T06:18:14.490Z,18.20
2018-11-28T06:19:14.543Z,15.30
2018-11-28T06:20:14.596Z,15.90
2018-11-28T06:21:14.648Z,18.20
2018-11-28T06:22:14.701Z,18.00
2018-11-28T06:23:14.754Z,14.50
2018-11-28T06:24:14.806Z,17.30
2018-11-28T06:25:16.299Z,18.30
2018-11-28T06:26:14.913Z,21.90
2018-11-28T06:27:14.965Z,15.90
2018-11-28T06:28:15.016Z,16.50
2018-11-28T06:29:15.071Z,15.90
2018-11-28T06:30:15.124Z,19.80
2018-11-28T06:31:15.176Z,21.50
2018-11-28T06:32:15.479Z,19.50
2018-11-28T06:33:15.284Z,17.90
2018-11-28T06:34:15.334Z,19.00
2018-11-28T06:35:15.388Z,20.00
2018-11-28T06:36:15.443Z,18.20
2018-11-28T06:37:15.494Z,18.00
2018-11-28T06:38:15.546Z,19.20
2018-11-28T06:39:15.601Z,15.80
2018-11-28T06:40:15.652Z,22.60
2018-11-28T06:41:15.707Z,18.00
2018-11-28T06:42:15.759Z,20.70
2018-11-28T06:43:15.811Z,18.60
2018-11-28T06:44:15.864Z,15.50
2018-11-28T06:45:15.921Z,17.70
2018-11-28T06:46:15.977Z,18.90
2018-11-28T06:47:16.720Z,17.90
2018-11-28T06:48:16.599Z,18.80
2018-11-28T06:49:16.130Z,17.20
2018-11-28T06:50:16.180Z,20.30
2018-11-28T06:51:16.253Z,23.20
2018-11-28T06:52:16.286Z,17.30
2018-11-28T06:53:16.343Z,16.80
2018-11-28T06:54:16.393Z,18.80
2018-11-28T06:55:16.445Z,21.20
2018-11-28T06:56:16.498Z,15.10
2018-11-28T06:57:16.551Z,17.00
2018-11-28T06:58:16.605Z,18.70
2018-11-28T06:59:16.658Z,15.90
2018-11-28T07:00:16.711Z,19.80
2018-11-28T07:01:16.764Z,18.90
2018-11-28T07:02:16.817Z,18.00
2018-11-28T07:03:17.217Z,21.00
2018-11-28T07:04:16.921Z,16.30
2018-11-28T07:05:16.976Z,16.40
2018-11-28T07:06:17.029Z,18.20
2018-11-28T07:07:17.081Z,17.00
2018-11-28T07:08:17.134Z,16.40
2018-11-28T07:09:17.187Z,17.90
2018-11-28T07:10:17.859Z,18.60
2018-11-28T07:11:17.294Z,20.80
2018-11-28T07:12:17.345Z,18.10
2018-11-28T07:13:17.430Z,22.20
2018-11-28T07:14:17.451Z,19.10
2018-11-28T07:15:17.507Z,19.30
2018-11-28T07:16:17.560Z,16.70
2018-11-28T07:17:17.611Z,17.10
2018-11-28T07:18:17.662Z,17.90
2018-11-28T07:19:17.717Z,20.50
2018-11-28T07:20:17.769Z,15.30
2018-11-28T07:21:17.832Z,19.80
2018-11-28T07:22:17.875Z,18.10
2018-11-28T07:23:17.929Z,18.40
2018-11-28T07:24:17.980Z,15.30
2018-11-28T07:25:18.033Z,20.00
2018-11-28T07:26:18.429Z,16.70
2018-11-28T07:27:18.140Z,18.00
2018-11-28T07:28:18.194Z,19.00
2018-11-28T07:29:18.246Z,16.90
2018-11-28T07:30:18.300Z,19.90
2018-11-28T07:31:18.354Z,22.60
2018-11-28T07:32:18.458Z,18.20
2018-11-28T07:33:18.460Z,17.50
2018-11-28T07:34:18.512Z,19.00
2018-11-28T07:35:18.565Z,21.30
2018-11-28T07:36:18.618Z,17.80
2018-11-28T07:37:18.676Z,18.20
2018-11-28T07:38:18.728Z,17.40
2018-11-28T07:39:18.795Z,16.60
2018-11-28T07:40:18.871Z,18.30
2018-11-28T07:41:18.891Z,18.40
2018-11-28T07:42:18.969Z,18.80
2018-11-28T07:43:18.992Z,15.50
2018-11-28T07:44:19.045Z,17.80
2018-11-28T07:45:19.098Z,23.60
2018-11-28T07:46:19.150Z,18.50
2018-11-28T07:47:19.205Z,17.10
2018-11-28T07:48:19.258Z,19.00
2018-11-28T07:49:19.341Z,15.80
2018-11-28T07:50:19.395Z,22.20
2018-11-28T07:51:19.448Z,19.20
2018-11-28T07:52:19.475Z,19.60
2018-11-28T07:53:19.528Z,18.80
2018-11-28T07:54:19.609Z,19.20
2018-11-28T07:55:19.667Z,17.30
2018-11-28T07:56:19.718Z,17.80
2018-11-28T07:57:20.448Z,20.50
2018-11-28T07:58:19.792Z,18.30
2018-11-28T07:59:19.847Z,16.70
2018-11-28T08:00:19.898Z,19.40
2018-11-28T08:01:19.954Z,18.40
2018-11-28T08:02:20.007Z,18.40
2018-11-28T08:03:20.061Z,18.20
2018-11-28T08:04:20.414Z,18.90
2018-11-28T08:05:20.168Z,18.90
2018-11-28T08:06:20.222Z,18.20
2018-11-28T08:07:20.282Z,17.50
2018-11-28T08:08:20.330Z,17.70
2018-11-28T08:09:20.384Z,22.10
2018-11-28T08:10:20.438Z,17.60
2018-11-28T08:11:20.492Z,18.80
2018-11-28T08:12:20.548Z,19.70
2018-11-28T08:13:20.598Z,17.10
2018-11-28T08:14:20.658Z,17.70
2018-11-28T08:15:21.184Z,19.00
2018-11-28T08:16:20.760Z,22.00
2018-11-28T08:17:20.814Z,20.50
2018-11-28T08:18:20.869Z,16.10
2018-11-28T08:19:24.004Z,19.90
2018-11-28T08:20:20.976Z,18.70
2018-11-28T08:21:21.041Z,19.00
2018-11-28T08:22:21.084Z,19.40
2018-11-28T08:23:21.140Z,19.90
2018-11-28T08:24:21.195Z,21.00
2018-11-28T08:25:21.246Z,20.20
2018-11-28T08:26:21.302Z,19.70
2018-11-28T08:27:21.354Z,20.70
2018-11-28T08:28:22.258Z,22.80
2018-11-28T08:29:21.463Z,18.30
2018-11-28T08:30:21.517Z,21.50
2018-11-28T08:31:21.572Z,23.00
2018-11-28T08:32:21.625Z,19.40
2018-11-28T08:33:21.691Z,18.00
2018-11-28T08:34:21.736Z,21.00
2018-11-28T08:35:21.788Z,17.30
2018-11-28T08:36:21.846Z,20.00
2018-11-28T08:37:21.902Z,18.50
2018-11-28T08:38:21.952Z,18.80
2018-11-28T08:39:22.005Z,17.60
2018-11-28T08:40:22.058Z,17.20
2018-11-28T08:41:22.112Z,21.90
2018-11-28T08:42:22.167Z,19.60
2018-11-28T08:43:22.220Z,17.30
2018-11-28T08:44:22.275Z,20.80
2018-11-28T08:45:22.327Z,16.90
2018-11-28T08:46:22.421Z,22.90
2018-11-28T08:47:22.438Z,20.10
2018-11-28T08:48:22.490Z,20.40
2018-11-28T08:49:22.545Z,18.50
2018-11-28T08:50:22.601Z,18.70
2018-11-28T08:51:22.655Z,19.50
2018-11-28T08:52:22.758Z,20.40
2018-11-28T08:53:22.762Z,21.50
2018-11-28T08:54:22.817Z,21.40
2018-11-28T08:55:22.871Z,19.80
2018-11-28T08:56:22.925Z,19.50
2018-11-28T08:57:22.978Z,16.10
2018-11-28T08:58:23.033Z,19.60
2018-11-28T08:59:23.753Z,19.90
2018-11-28T09:00:23.141Z,20.60
2018-11-28T09:01:23.198Z,17.00
2018-11-28T09:02:23.251Z,22.90
2018-11-28T09:03:23.639Z,20.60
2018-11-28T09:04:23.385Z,21.60
2018-11-28T09:05:23.413Z,21.00
2018-11-28T09:06:23.468Z,19.40
2018-11-28T09:07:23.525Z,18.40
2018-11-28T09:08:23.577Z,22.00
2018-11-28T09:09:23.654Z,20.00
2018-11-28T09:10:23.754Z,17.00
2018-11-28T09:11:23.742Z,18.50
2018-11-28T09:12:23.795Z,20.10
2018-11-28T09:13:23.851Z,20.20
2018-11-28T09:14:23.905Z,20.70
2018-11-28T09:15:23.972Z,18.30
2018-11-28T09:16:24.014Z,20.70
2018-11-28T09:17:24.069Z,21.50
2018-11-28T09:18:24.123Z,18.40
2018-11-28T09:19:24.178Z,21.50
2018-11-28T09:20:24.232Z,22.00
2018-11-28T09:21:24.287Z,21.50
2018-11-28T09:22:24.378Z,18.60
2018-11-28T09:23:24.397Z,19.20
2018-11-28T09:24:24.451Z,17.80
2018-11-28T09:25:24.506Z,19.80
2018-11-28T09:26:24.562Z,17.90
2018-11-28T09:27:24.619Z,16.70
2018-11-28T09:28:24.671Z,18.90
2018-11-28T09:29:24.725Z,18.50
2018-11-28T09:30:24.781Z,19.90
2018-11-28T09:31:24.838Z,17.60
2018-11-28T09:32:24.891Z,19.80
2018-11-28T09:33:24.947Z,23.00
2018-11-28T09:34:25.005Z,18.90
2018-11-28T09:35:25.073Z,22.30
2018-11-28T09:36:25.111Z,21.00
2018-11-28T09:37:25.168Z,18.80
2018-11-28T09:38:25.224Z,20.40
2018-11-28T09:39:25.772Z,16.50
2018-11-28T09:40:25.332Z,20.00
2018-11-28T09:41:25.389Z,18.60
2018-11-28T09:42:25.444Z,18.60
2018-11-28T09:43:25.499Z,18.80
2018-11-28T09:44:25.553Z,18.10
2018-11-28T09:45:25.610Z,20.70
2018-11-28T09:46:25.666Z,19.10
2018-11-28T09:47:25.722Z,20.50
2018-11-28T09:48:25.776Z,18.60
2018-11-28T09:49:25.831Z,21.70
2018-11-28T09:50:25.889Z,23.20
2018-11-28T09:51:25.943Z,21.30
2018-11-28T09:52:25.999Z,20.90
2018-11-28T09:53:26.055Z,20.50
2018-11-28T09:54:26.114Z,21.80
2018-11-28T09:55:26.168Z,20.30
2018-11-28T09:56:26.221Z,19.00
2018-11-28T09:57:26.277Z,19.60
2018-11-28T09:58:26.369Z,23.40
2018-11-28T09:59:26.406Z,20.20
2018-11-28T10:00:26.444Z,19.30
2018-11-28T10:01:26.504Z,20.30
2018-11-28T10:02:26.558Z,21.20
2018-11-28T10:03:26.617Z,20.80
2018-11-28T10:04:26.668Z,19.10
2018-11-28T10:05:26.725Z,19.20
2018-11-28T10:06:26.782Z,20.80
2018-11-28T10:07:26.837Z,18.60
2018-11-28T10:08:26.893Z,20.30
2018-11-28T10:09:26.953Z,20.90
2018-11-28T10:10:27.042Z,22.40
2018-11-28T10:11:27.066Z,19.60
2018-11-28T10:12:27.121Z,18.40
2018-11-28T10:13:27.175Z,23.00
2018-11-28T10:14:27.234Z,22.50
2018-11-28T10:15:27.291Z,20.60
2018-11-28T10:16:27.343Z,20.10
2018-11-28T10:17:27.400Z,20.90
2018-11-28T10:18:27.456Z,18.80
2018-11-28T10:19:27.513Z,18.50
2018-11-28T10:20:27.568Z,18.80
2018-11-28T10:21:27.624Z,20.00
2018-11-28T10:22:27.685Z,18.50
2018-11-28T10:23:27.741Z,21.10
2018-11-28T10:24:27.795Z,20.30
2018-11-28T10:25:27.852Z,19.70
2018-11-28T10:26:27.909Z,23.40
2018-11-28T10:27:27.963Z,18.60
2018-11-28T10:28:28.022Z,22.10
2018-11-28T10:29:28.078Z,20.10
2018-11-28T10:30:29.144Z,19.90
2018-11-28T10:31:28.193Z,22.40
2018-11-28T10:32:28.250Z,22.30
2018-11-28T10:33:28.304Z,23.70
2018-11-28T10:34:29.607Z,20.70
2018-11-28T10:35:28.416Z,19.20
2018-11-28T10:36:28.471Z,23.50
2018-11-28T10:37:28.530Z,22.30
2018-11-28T10:38:28.587Z,19.40
2018-11-28T10:39:28.645Z,20.50
2018-11-28T10:40:28.700Z,20.30
2018-11-28T10:41:28.756Z,20.20
2018-11-28T10:42:28.814Z,21.30
2018-11-28T10:43:28.872Z,21.80
2018-11-28T10:44:28.936Z,19.80
2018-11-28T10:45:28.984Z,20.20
2018-11-28T10:46:29.041Z,21.00
2018-11-28T10:47:29.099Z,19.20
2018-11-28T10:48:29.155Z,26.60
2018-11-28T10:49:29.213Z,15.20
2018-11-28T10:50:29.269Z,18.40
2018-11-28T10:51:29.365Z,17.10
2018-11-28T10:52:29.383Z,18.60
2018-11-28T10:53:29.442Z,17.10
2018-11-28T10:54:29.498Z,22.60
2018-11-28T10:55:29.558Z,17.00
2018-11-28T10:56:29.613Z,16.20
2018-11-28T10:57:29.670Z,16.00
2018-11-28T10:58:29.731Z,17.00
2018-11-28T10:59:30.144Z,17.60
2018-11-28T11:00:29.843Z,15.50
2018-11-28T11:01:29.901Z,15.10
2018-11-28T11:02:29.957Z,19.10
2018-11-28T11:03:30.015Z,15.50
2018-11-28T11:04:30.070Z,15.50
2018-11-28T11:05:30.129Z,15.60
2018-11-28T11:06:30.188Z,19.50
2018-11-28T11:07:30.244Z,13.60
2018-11-28T11:08:30.300Z,16.80
2018-11-28T11:09:30.357Z,15.30
2018-11-28T11:10:30.414Z,14.70
2018-11-28T11:11:30.493Z,16.60
2018-11-28T11:12:30.529Z,17.40
2018-11-28T11:13:30.588Z,15.80
2018-11-28T11:14:30.648Z,15.90
2018-11-28T11:15:30.704Z,16.30
2018-11-28T11:16:30.758Z,16.30
2018-11-28T11:17:30.816Z,16.10
2018-11-28T11:18:30.916Z,15.40
2018-11-28T11:19:30.933Z,13.80
2018-11-28T11:20:31.129Z,15.80
2018-11-28T11:21:31.048Z,17.30
2018-11-28T11:22:31.105Z,14.40
2018-11-28T11:23:31.162Z,15.00
2018-11-28T11:24:31.219Z,16.50
2018-11-28T11:25:31.277Z,17.30
2018-11-28T11:26:31.336Z,17.20
2018-11-28T11:27:31.391Z,14.50
2018-11-28T11:28:31.455Z,16.10
2018-11-28T11:29:31.508Z,16.20
2018-11-28T11:30:31.575Z,15.00
2018-11-28T11:31:31.649Z,16.10
2018-11-28T11:32:31.679Z,13.80
2018-11-28T11:33:31.735Z,13.80
2018-11-28T11:34:31.819Z,14.00
2018-11-28T11:35:31.870Z,13.70
2018-11-28T11:36:31.908Z,16.00
2018-11-28T11:37:31.966Z,15.50
2018-11-28T11:38:32.023Z,14.90
2018-11-28T11:39:32.081Z,16.00
2018-11-28T11:40:32.159Z,13.50
2018-11-28T11:41:32.196Z,12.40
2018-11-28T11:42:32.252Z,13.60
2018-11-28T11:43:32.311Z,17.10
2018-11-28T11:44:32.366Z,14.70
2018-11-28T11:45:32.424Z,17.10
2018-11-28T11:46:32.483Z,15.70
2018-11-28T11:47:32.546Z,14.30
2018-11-28T11:48:32.596Z,14.30
2018-11-28T11:49:32.712Z,14.10
2018-11-28T11:50:32.712Z,15.20
2018-11-28T11:51:32.775Z,16.80
2018-11-28T11:52:32.836Z,14.00
2018-11-28T11:53:32.884Z,14.40
2018-11-28T11:54:32.944Z,15.60
2018-11-28T11:55:33.004Z,13.30
2018-11-28T11:56:33.116Z,15.90
2018-11-28T11:57:33.731Z,17.20
2018-11-28T11:58:33.173Z,15.80
2018-11-28T11:59:33.231Z,16.10
2018-11-28T12:00:33.286Z,15.00
2018-11-28T12:01:33.344Z,17.10
2018-11-28T12:02:33.404Z,14.50
2018-11-28T12:03:33.459Z,14.00
2018-11-28T12:04:33.517Z,14.50
2018-11-28T12:05:33.577Z,17.10
2018-11-28T12:06:33.633Z,14.70
2018-11-28T12:07:33.722Z,18.90
2018-11-28T12:08:33.750Z,15.40
2018-11-28T12:09:33.806Z,15.00
2018-11-28T12:10:33.862Z,13.70
2018-11-28T12:11:33.921Z,17.10
2018-11-28T12:12:34.019Z,13.60
2018-11-28T12:13:34.035Z,16.10
2018-11-28T12:14:34.101Z,13.30
2018-11-28T12:15:34.156Z,16.90
2018-11-28T12:16:34.673Z,14.70
2018-11-28T12:17:34.267Z,13.90
2018-11-28T12:18:34.325Z,13.60
2018-11-28T12:19:34.382Z,13.30
2018-11-28T12:20:34.438Z,14.80
2018-11-28T12:21:34.497Z,12.50
2018-11-28T12:22:34.555Z,15.60
2018-11-28T12:23:34.613Z,13.50
2018-11-28T12:24:34.668Z,14.20
2018-11-28T12:25:34.771Z,13.60
2018-11-28T12:26:34.787Z,13.60
2018-11-28T12:27:34.848Z,14.60
2018-11-28T12:28:34.899Z,13.80
2018-11-28T12:29:34.957Z,13.90
2018-11-28T12:30:35.021Z,16.00
2018-11-28T12:31:35.071Z,12.70
2018-11-28T12:32:35.128Z,12.90
2018-11-28T12:33:35.188Z,13.90
2018-11-28T12:34:35.244Z,12.50
2018-11-28T12:35:35.305Z,13.70
2018-11-28T12:36:35.359Z,15.20
2018-11-28T12:37:35.417Z,13.80
2018-11-28T12:38:35.475Z,11.90
2018-11-28T12:39:35.656Z,13.50
2018-11-28T12:40:35.594Z,14.10
2018-11-28T12:41:35.679Z,14.50
2018-11-28T12:42:35.704Z,12.80
2018-11-28T12:43:35.760Z,14.70
2018-11-28T12:44:35.817Z,12.80
2018-11-28T12:45:35.875Z,14.80
2018-11-28T12:46:35.934Z,14.70
2018-11-28T12:47:35.991Z,14.50
2018-11-28T12:48:36.049Z,14.30
2018-11-28T12:49:36.104Z,16.90
2018-11-28T12:50:36.162Z,13.20
2018-11-28T12:51:36.221Z,13.80
2018-11-28T12:52:36.275Z,13.10
2018-11-28T12:53:36.338Z,15.20
2018-11-28T12:54:36.392Z,16.60